Terminal Aerodrome Forecast
Issued by NWS

Home | Current Version | Previous Version | Text Only | Print | Product List | Glossary On
Versions: 1 2 3 4 5 6 7 8 9 10 11 12 13 14 15 16 17 18 19 20 21 22 23 24 25 26 27 28 29 30 31 32 33 34 35 36
000
FTUS45 KBOU 301127
TAFAPA
TAF
KAPA 301127Z 3012/3112 22007KT P6SM FEW140 SCT250
     FM301600 VRB05KT P6SM FEW090 SCT250
     FM301900 12009KT P6SM SCT090 SCT140 BKN200
     FM310000 16010KT P6SM SCT090 BKN140
      TEMPO 3100/3103 VRB20G30KT BKN090
     FM310400 19008KT P6SM SCT090 BKN140
     FM311000 25007KT P6SM SCT090 BKN140=

USA.gov is the U.S. government's official web portal to all federal, state and local government web resources and services.